sensor_id;sensor_type;location;lat;lon;timestamp;P1;durP1;ratioP1;P2;durP2;ratioP2
7693;SDS011;3889;48.162;11.510;2023-04-01T00:00:32;2.13;;;1.13;;
7693;SDS011;3889;48.162;11.510;2023-04-01T00:03:00;1.88;;;1.00;;
7693;SDS011;3889;48.162;11.510;2023-04-01T00:05:28;1.85;;;1.00;;
7693;SDS011;3889;48.162;11.510;2023-04-01T00:07:56;1.70;;;1.10;;
7693;SDS011;3889;48.162;11.510;2023-04-01T00:10:26;1.85;;;1.20;;
7693;SDS011;3889;48.162;11.510;2023-04-01T00:12:53;1.40;;;0.90;;
7693;SDS011;3889;48.162;11.510;2023-04-01T00:15:21;1.65;;;1.00;;
7693;SDS011;3889;48.162;11.510;2023-04-01T00:17:49;1.45;;;0.95;;
7693;SDS011;3889;48.162;11.510;2023-04-01T00:20:18;1.65;;;0.90;;
7693;SDS011;3889;48.162;11.510;2023-04-01T00:22:46;1.52;;;0.90;;
7693;SDS011;3889;48.162;11.510;2023-04-01T00:25:14;3.07;;;1.10;;
7693;SDS011;3889;48.162;11.510;2023-04-01T00:27:43;1.35;;;0.80;;
7693;SDS011;3889;48.162;11.510;2023-04-01T00:30:11;2.50;;;1.20;;
7693;SDS011;3889;48.162;11.510;2023-04-01T00:32:39;2.20;;;1.10;;
7693;SDS011;3889;48.162;11.510;2023-04-01T00:35:08;1.33;;;1.00;;
7693;SDS011;3889;48.162;11.510;2023-04-01T00:37:36;1.85;;;0.90;;
7693;SDS011;3889;48.162;11.510;2023-04-01T00:40:07;1.90;;;0.90;;
7693;SDS011;3889;48.162;11.510;2023-04-01T00:42:49;1.75;;;1.02;;
7693;SDS011;3889;48.162;11.510;2023-04-01T00:45:25;2.85;;;1.30;;
7693;SDS011;3889;48.162;11.510;2023-04-01T00:47:56;3.08;;;1.20;;
7693;SDS011;3889;48.162;11.510;2023-04-01T00:50:27;1.90;;;1.15;;
7693;SDS011;3889;48.162;11.510;2023-04-01T00:52:58;2.13;;;1.05;;
7693;SDS011;3889;48.162;11.510;2023-04-01T00:55:27;2.28;;;1.10;;
7693;SDS011;3889;48.162;11.510;2023-04-01T00:58:00;2.40;;;1.15;;
7693;SDS011;3889;48.162;11.510;2023-04-01T01:00:30;2.05;;;1.23;;
7693;SDS011;3889;48.162;11.510;2023-04-01T01:02:59;2.30;;;1.23;;
7693;SDS011;3889;48.162;11.510;2023-04-01T01:05:30;2.83;;;1.20;;
7693;SDS011;3889;48.162;11.510;2023-04-01T01:08:15;1.77;;;1.10;;
7693;SDS011;3889;48.162;11.510;2023-04-01T01:10:48;3.13;;;1.20;;
7693;SDS011;3889;48.162;11.510;2023-04-01T01:13:19;2.03;;;1.10;;
7693;SDS011;3889;48.162;11.510;2023-04-01T01:15:55;2.38;;;1.00;;
7693;SDS011;3889;48.162;11.510;2023-04-01T01:18:30;3.22;;;1.33;;
7693;SDS011;3889;48.162;11.510;2023-04-01T01:21:22;3.90;;;1.40;;
7693;SDS011;3889;48.162;11.510;2023-04-01T01:24:17;2.10;;;1.20;;
7693;SDS011;3889;48.162;11.510;2023-04-01T01:27:00;2.80;;;1.27;;
7693;SDS011;3889;48.162;11.510;2023-04-01T01:29:39;2.60;;;1.20;;
7693;SDS011;3889;48.162;11.510;2023-04-01T01:32:32;2.10;;;1.20;;
7693;SDS011;3889;48.162;11.510;2023-04-01T01:35:17;2.40;;;1.20;;
7693;SDS011;3889;48.162;11.510;2023-04-01T01:37:50;2.72;;;1.35;;
7693;SDS011;3889;48.162;11.510;2023-04-01T01:40:22;2.30;;;1.00;;
7693;SDS011;3889;48.162;11.510;2023-04-01T01:42:53;3.97;;;1.10;;
7693;SDS011;3889;48.162;11.510;2023-04-01T01:45:25;2.83;;;1.02;;
7693;SDS011;3889;48.162;11.510;2023-04-01T01:47:54;2.28;;;1.13;;
7693;SDS011;3889;48.162;11.510;2023-04-01T01:50:26;3.45;;;1.30;;
7693;SDS011;3889;48.162;11.510;2023-04-01T01:53:00;2.70;;;1.25;;
7693;SDS011;3889;48.162;11.510;2023-04-01T01:55:32;1.85;;;1.10;;
7693;SDS011;3889;48.162;11.510;2023-04-01T01:58:02;2.20;;;1.20;;
7693;SDS011;3889;48.162;11.510;2023-04-01T02:00:34;1.45;;;0.95;;
7693;SDS011;3889;48.162;11.510;2023-04-01T02:03:03;2.70;;;1.20;;
7693;SDS011;3889;48.162;11.510;2023-04-01T02:05:33;2.97;;;1.20;;
7693;SDS011;3889;48.162;11.510;2023-04-01T02:08:02;1.60;;;1.10;;
7693;SDS011;3889;48.162;11.510;2023-04-01T02:10:35;1.60;;;1.00;;
7693;SDS011;3889;48.162;11.510;2023-04-01T02:13:07;1.80;;;0.98;;
7693;SDS011;3889;48.162;11.510;2023-04-01T02:15:41;1.35;;;0.90;;
7693;SDS011;3889;48.162;11.510;2023-04-01T02:18:13;1.77;;;0.90;;
7693;SDS011;3889;48.162;11.510;2023-04-01T02:20:44;2.20;;;1.10;;
7693;SDS011;3889;48.162;11.510;2023-04-01T02:23:12;1.15;;;0.90;;
7693;SDS011;3889;48.162;11.510;2023-04-01T02:25:41;1.77;;;0.90;;
7693;SDS011;3889;48.162;11.510;2023-04-01T02:28:10;1.50;;;0.90;;
7693;SDS011;3889;48.162;11.510;2023-04-01T02:30:41;1.95;;;0.75;;
7693;SDS011;3889;48.162;11.510;2023-04-01T02:33:11;2.08;;;0.90;;
7693;SDS011;3889;48.162;11.510;2023-04-01T02:35:39;1.60;;;0.83;;
7693;SDS011;3889;48.162;11.510;2023-04-01T02:38:08;1.48;;;0.75;;
7693;SDS011;3889;48.162;11.510;2023-04-01T02:40:43;2.53;;;0.77;;
7693;SDS011;3889;48.162;11.510;2023-04-01T02:43:13;1.48;;;0.80;;
7693;SDS011;3889;48.162;11.510;2023-04-01T02:45:41;1.45;;;0.73;;
7693;SDS011;3889;48.162;11.510;2023-04-01T02:48:09;1.63;;;0.85;;
7693;SDS011;3889;48.162;11.510;2023-04-01T02:50:37;1.35;;;0.70;;
7693;SDS011;3889;48.162;11.510;2023-04-01T02:53:04;1.40;;;0.80;;
7693;SDS011;3889;48.162;11.510;2023-04-01T02:55:34;1.10;;;0.70;;
7693;SDS011;3889;48.162;11.510;2023-04-01T02:58:02;1.52;;;0.80;;
7693;SDS011;3889;48.162;11.510;2023-04-01T03:00:30;2.03;;;0.70;;
7693;SDS011;3889;48.162;11.510;2023-04-01T03:02:57;1.23;;;0.80;;
7693;SDS011;3889;48.162;11.510;2023-04-01T03:05:26;0.73;;;0.70;;
7693;SDS011;3889;48.162;11.510;2023-04-01T03:07:54;1.55;;;0.90;;
7693;SDS011;3889;48.162;11.510;2023-04-01T03:10:22;1.17;;;0.80;;
7693;SDS011;3889;48.162;11.510;2023-04-01T03:12:51;0.88;;;0.70;;
7693;SDS011;3889;48.162;11.510;2023-04-01T03:15:18;0.85;;;0.70;;
7693;SDS011;3889;48.162;11.510;2023-04-01T03:17:46;1.42;;;0.80;;
7693;SDS011;3889;48.162;11.510;2023-04-01T03:20:14;0.68;;;0.60;;
7693;SDS011;3889;48.162;11.510;2023-04-01T03:22:43;0.60;;;0.60;;
7693;SDS011;3889;48.162;11.510;2023-04-01T03:25:12;0.88;;;0.60;;
7693;SDS011;3889;48.162;11.510;2023-04-01T03:27:40;0.80;;;0.57;;
7693;SDS011;3889;48.162;11.510;2023-04-01T03:30:09;0.70;;;0.60;;
7693;SDS011;3889;48.162;11.510;2023-04-01T03:32:37;1.20;;;0.60;;
7693;SDS011;3889;48.162;11.510;2023-04-01T03:35:05;0.88;;;0.63;;
7693;SDS011;3889;48.162;11.510;2023-04-01T03:37:35;0.50;;;0.50;;
7693;SDS011;3889;48.162;11.510;2023-04-01T03:40:04;0.65;;;0.60;;
7693;SDS011;3889;48.162;11.510;2023-04-01T03:42:32;0.70;;;0.70;;
7693;SDS011;3889;48.162;11.510;2023-04-01T03:45:01;0.98;;;0.70;;
7693;SDS011;3889;48.162;11.510;2023-04-01T03:47:30;0.70;;;0.70;;
7693;SDS011;3889;48.162;11.510;2023-04-01T03:49:58;0.88;;;0.77;;
7693;SDS011;3889;48.162;11.510;2023-04-01T03:52:26;1.02;;;0.70;;
7693;SDS011;3889;48.162;11.510;2023-04-01T03:54:54;2.30;;;0.90;;
7693;SDS011;3889;48.162;11.510;2023-04-01T03:57:22;1.10;;;0.70;;
7693;SDS011;3889;48.162;11.510;2023-04-01T03:59:50;0.60;;;0.60;;
7693;SDS011;3889;48.162;11.510;2023-04-01T04:02:18;1.27;;;0.70;;
7693;SDS011;3889;48.162;11.510;2023-04-01T04:04:47;1.20;;;0.70;;
7693;SDS011;3889;48.162;11.510;2023-04-01T04:07:15;0.70;;;0.70;;
7693;SDS011;3889;48.162;11.510;2023-04-01T04:09:43;0.95;;;0.70;;
7693;SDS011;3889;48.162;11.510;2023-04-01T04:12:10;0.85;;;0.70;;
7693;SDS011;3889;48.162;11.510;2023-04-01T04:14:38;0.85;;;0.80;;
7693;SDS011;3889;48.162;11.510;2023-04-01T04:17:06;1.60;;;0.88;;
7693;SDS011;3889;48.162;11.510;2023-04-01T04:19:39;1.10;;;0.80;;
7693;SDS011;3889;48.162;11.510;2023-04-01T04:22:08;1.35;;;0.77;;
7693;SDS011;3889;48.162;11.510;2023-04-01T04:24:36;1.13;;;0.80;;
7693;SDS011;3889;48.162;11.510;2023-04-01T04:27:04;1.20;;;0.77;;
7693;SDS011;3889;48.162;11.510;2023-04-01T04:29:33;1.80;;;0.70;;
7693;SDS011;3889;48.162;11.510;2023-04-01T04:32:00;1.27;;;0.80;;
7693;SDS011;3889;48.162;11.510;2023-04-01T04:34:28;0.80;;;0.70;;
7693;SDS011;3889;48.162;11.510;2023-04-01T04:36:56;1.95;;;0.82;;
7693;SDS011;3889;48.162;11.510;2023-04-01T04:39:25;1.45;;;0.82;;
7693;SDS011;3889;48.162;11.510;2023-04-01T04:41:53;1.73;;;0.80;;
7693;SDS011;3889;48.162;11.510;2023-04-01T04:44:21;1.63;;;0.80;;
7693;SDS011;3889;48.162;11.510;2023-04-01T04:46:49;1.70;;;1.00;;
7693;SDS011;3889;48.162;11.510;2023-04-01T04:49:17;1.42;;;1.00;;
7693;SDS011;3889;48.162;11.510;2023-04-01T04:51:45;1.80;;;1.02;;
7693;SDS011;3889;48.162;11.510;2023-04-01T04:54:13;1.98;;;1.00;;
7693;SDS011;3889;48.162;11.510;2023-04-01T04:56:42;1.98;;;1.10;;
7693;SDS011;3889;48.162;11.510;2023-04-01T04:59:10;1.88;;;1.08;;
7693;SDS011;3889;48.162;11.510;2023-04-01T05:01:38;2.42;;;1.10;;
7693;SDS011;3889;48.162;11.510;2023-04-01T05:04:06;1.42;;;1.00;;
7693;SDS011;3889;48.162;11.510;2023-04-01T05:06:34;1.95;;;0.90;;
7693;SDS011;3889;48.162;11.510;2023-04-01T05:09:02;1.40;;;0.90;;
7693;SDS011;3889;48.162;11.510;2023-04-01T05:11:30;1.75;;;0.90;;
7693;SDS011;3889;48.162;11.510;2023-04-01T05:13:59;1.70;;;0.85;;
7693;SDS011;3889;48.162;11.510;2023-04-01T05:16:27;1.30;;;0.80;;
7693;SDS011;3889;48.162;11.510;2023-04-01T05:18:56;2.05;;;1.10;;
7693;SDS011;3889;48.162;11.510;2023-04-01T05:21:24;1.60;;;0.90;;
7693;SDS011;3889;48.162;11.510;2023-04-01T05:23:51;2.72;;;1.27;;
7693;SDS011;3889;48.162;11.510;2023-04-01T05:26:19;1.55;;;0.90;;
7693;SDS011;3889;48.162;11.510;2023-04-01T05:28:47;1.95;;;1.00;;
7693;SDS011;3889;48.162;11.510;2023-04-01T05:31:16;2.42;;;1.00;;
7693;SDS011;3889;48.162;11.510;2023-04-01T05:33:44;2.10;;;1.00;;
7693;SDS011;3889;48.162;11.510;2023-04-01T05:36:13;2.00;;;1.20;;
7693;SDS011;3889;48.162;11.510;2023-04-01T05:38:43;1.58;;;1.00;;
7693;SDS011;3889;48.162;11.510;2023-04-01T05:41:12;2.53;;;1.02;;
7693;SDS011;3889;48.162;11.510;2023-04-01T05:43:40;1.40;;;1.03;;
7693;SDS011;3889;48.162;11.510;2023-04-01T05:46:08;1.42;;;1.20;;
7693;SDS011;3889;48.162;11.510;2023-04-01T05:48:38;2.90;;;1.08;;
7693;SDS011;3889;48.162;11.510;2023-04-01T05:51:06;1.45;;;0.82;;
7693;SDS011;3889;48.162;11.510;2023-04-01T05:53:39;1.10;;;0.90;;
7693;SDS011;3889;48.162;11.510;2023-04-01T05:56:07;1.55;;;1.00;;
7693;SDS011;3889;48.162;11.510;2023-04-01T05:58:36;1.60;;;0.95;;
7693;SDS011;3889;48.162;11.510;2023-04-01T06:01:04;2.53;;;1.00;;
7693;SDS011;3889;48.162;11.510;2023-04-01T06:03:40;2.28;;;1.13;;
7693;SDS011;3889;48.162;11.510;2023-04-01T06:06:10;1.70;;;1.20;;
7693;SDS011;3889;48.162;11.510;2023-04-01T06:08:41;3.25;;;1.27;;
7693;SDS011;3889;48.162;11.510;2023-04-01T06:11:13;2.58;;;1.30;;
7693;SDS011;3889;48.162;11.510;2023-04-01T06:13:51;2.08;;;1.20;;
7693;SDS011;3889;48.162;11.510;2023-04-01T06:16:34;2.80;;;1.30;;
7693;SDS011;3889;48.162;11.510;2023-04-01T06:19:16;2.13;;;1.10;;
7693;SDS011;3889;48.162;11.510;2023-04-01T06:22:03;3.38;;;1.08;;
7693;SDS011;3889;48.162;11.510;2023-04-01T06:24:51;2.13;;;1.00;;
7693;SDS011;3889;48.162;11.510;2023-04-01T06:27:36;3.20;;;1.23;;
7693;SDS011;3889;48.162;11.510;2023-04-01T06:30:24;2.60;;;1.20;;
7693;SDS011;3889;48.162;11.510;2023-04-01T06:33:09;2.10;;;1.15;;
7693;SDS011;3889;48.162;11.510;2023-04-01T06:36:06;2.03;;;1.23;;
7693;SDS011;3889;48.162;11.510;2023-04-01T06:38:48;2.90;;;1.33;;
7693;SDS011;3889;48.162;11.510;2023-04-01T06:41:38;1.98;;;1.17;;
7693;SDS011;3889;48.162;11.510;2023-04-01T06:44:31;2.38;;;1.17;;
7693;SDS011;3889;48.162;11.510;2023-04-01T06:47:13;3.47;;;1.30;;
7693;SDS011;3889;48.162;11.510;2023-04-01T06:49:53;2.38;;;1.20;;
7693;SDS011;3889;48.162;11.510;2023-04-01T06:52:30;2.08;;;1.05;;
7693;SDS011;3889;48.162;11.510;2023-04-01T06:55:12;2.92;;;1.10;;
7693;SDS011;3889;48.162;11.510;2023-04-01T06:57:52;2.60;;;1.00;;
7693;SDS011;3889;48.162;11.510;2023-04-01T07:00:24;2.70;;;1.08;;
7693;SDS011;3889;48.162;11.510;2023-04-01T07:02:59;2.23;;;1.00;;
7693;SDS011;3889;48.162;11.510;2023-04-01T07:05:33;3.45;;;1.30;;
7693;SDS011;3889;48.162;11.510;2023-04-01T07:08:04;1.50;;;0.98;;
7693;SDS011;3889;48.162;11.510;2023-04-01T07:10:41;2.75;;;1.20;;
7693;SDS011;3889;48.162;11.510;2023-04-01T07:13:14;3.70;;;1.20;;
7693;SDS011;3889;48.162;11.510;2023-04-01T07:15:50;3.40;;;1.23;;
7693;SDS011;3889;48.162;11.510;2023-04-01T07:18:29;2.20;;;1.10;;
7693;SDS011;3889;48.162;11.510;2023-04-01T07:21:03;2.08;;;1.15;;
7693;SDS011;3889;48.162;11.510;2023-04-01T07:23:36;1.85;;;1.20;;
7693;SDS011;3889;48.162;11.510;2023-04-01T07:26:11;1.25;;;0.98;;
7693;SDS011;3889;48.162;11.510;2023-04-01T07:28:43;1.27;;;1.00;;
7693;SDS011;3889;48.162;11.510;2023-04-01T07:31:14;1.75;;;1.00;;
7693;SDS011;3889;48.162;11.510;2023-04-01T07:33:50;2.10;;;1.10;;
7693;SDS011;3889;48.162;11.510;2023-04-01T07:36:28;1.92;;;1.08;;
7693;SDS011;3889;48.162;11.510;2023-04-01T07:39:07;1.73;;;0.80;;
7693;SDS011;3889;48.162;11.510;2023-04-01T07:41:46;1.90;;;1.00;;
7693;SDS011;3889;48.162;11.510;2023-04-01T07:44:21;1.42;;;0.90;;
7693;SDS011;3889;48.162;11.510;2023-04-01T07:47:00;1.83;;;1.00;;
7693;SDS011;3889;48.162;11.510;2023-04-01T07:49:42;1.92;;;1.05;;
7693;SDS011;3889;48.162;11.510;2023-04-01T07:52:20;1.25;;;0.80;;
7693;SDS011;3889;48.162;11.510;2023-04-01T07:54:57;1.25;;;0.82;;
7693;SDS011;3889;48.162;11.510;2023-04-01T07:57:34;1.00;;;0.90;;
7693;SDS011;3889;48.162;11.510;2023-04-01T08:00:11;1.65;;;0.77;;
7693;SDS011;3889;48.162;11.510;2023-04-01T08:02:49;1.13;;;0.80;;
7693;SDS011;3889;48.162;11.510;2023-04-01T08:05:28;1.13;;;0.70;;
7693;SDS011;3889;48.162;11.510;2023-04-01T08:08:02;1.33;;;0.80;;
7693;SDS011;3889;48.162;11.510;2023-04-01T08:10:39;0.82;;;0.70;;
7693;SDS011;3889;48.162;11.510;2023-04-01T08:13:15;0.98;;;0.77;;
7693;SDS011;3889;48.162;11.510;2023-04-01T08:15:56;1.15;;;0.80;;
7693;SDS011;3889;48.162;11.510;2023-04-01T08:18:35;1.13;;;0.80;;
7693;SDS011;3889;48.162;11.510;2023-04-01T08:21:10;1.20;;;0.85;;
7693;SDS011;3889;48.162;11.510;2023-04-01T08:23:42;1.40;;;0.90;;
7693;SDS011;3889;48.162;11.510;2023-04-01T08:26:16;0.70;;;0.70;;
7693;SDS011;3889;48.162;11.510;2023-04-01T08:28:53;1.20;;;0.70;;
7693;SDS011;3889;48.162;11.510;2023-04-01T08:31:25;0.88;;;0.60;;
7693;SDS011;3889;48.162;11.510;2023-04-01T08:33:59;1.27;;;0.77;;
7693;SDS011;3889;48.162;11.510;2023-04-01T08:36:31;1.02;;;0.82;;
7693;SDS011;3889;48.162;11.510;2023-04-01T08:39:03;0.80;;;0.77;;
7693;SDS011;3889;48.162;11.510;2023-04-01T08:44:57;1.30;;;0.65;;
7693;SDS011;3889;48.162;11.510;2023-04-01T08:53:46;2.30;;;1.00;;
7693;SDS011;3889;48.162;11.510;2023-04-01T08:56:25;0.95;;;0.60;;
7693;SDS011;3889;48.162;11.510;2023-04-01T08:59:20;1.45;;;0.63;;
7693;SDS011;3889;48.162;11.510;2023-04-01T09:05:01;1.42;;;0.60;;
7693;SDS011;3889;48.162;11.510;2023-04-01T09:07:46;0.77;;;0.70;;
7693;SDS011;3889;48.162;11.510;2023-04-01T09:10:29;0.95;;;0.80;;
7693;SDS011;3889;48.162;11.510;2023-04-01T09:13:15;0.60;;;0.60;;
7693;SDS011;3889;48.162;11.510;2023-04-01T09:16:11;0.70;;;0.70;;
7693;SDS011;3889;48.162;11.510;2023-04-01T09:18:53;1.30;;;0.70;;
7693;SDS011;3889;48.162;11.510;2023-04-01T09:21:37;0.68;;;0.68;;
7693;SDS011;3889;48.162;11.510;2023-04-01T09:24:26;0.77;;;0.70;;
7693;SDS011;3889;48.162;11.510;2023-04-01T09:27:24;1.15;;;0.80;;
7693;SDS011;3889;48.162;11.510;2023-04-01T09:30:13;0.50;;;0.50;;
7693;SDS011;3889;48.162;11.510;2023-04-01T09:33:09;0.80;;;0.80;;
7693;SDS011;3889;48.162;11.510;2023-04-01T09:36:02;0.85;;;0.60;;
7693;SDS011;3889;48.162;11.510;2023-04-01T09:38:37;1.00;;;0.70;;
7693;SDS011;3889;48.162;11.510;2023-04-01T09:41:21;0.60;;;0.60;;
7693;SDS011;3889;48.162;11.510;2023-04-01T09:43:58;0.70;;;0.70;;
7693;SDS011;3889;48.162;11.510;2023-04-01T09:46:36;0.80;;;0.52;;
7693;SDS011;3889;48.162;11.510;2023-04-01T09:52:24;1.52;;;0.75;;
7693;SDS011;3889;48.162;11.510;2023-04-01T09:55:00;0.60;;;0.60;;
7693;SDS011;3889;48.162;11.510;2023-04-01T10:04:00;0.80;;;0.60;;
7693;SDS011;3889;48.162;11.510;2023-04-01T10:13:39;0.70;;;0.60;;
7693;SDS011;3889;48.162;11.510;2023-04-01T10:19:37;0.60;;;0.55;;
7693;SDS011;3889;48.162;11.510;2023-04-01T10:28:53;0.60;;;0.60;;
7693;SDS011;3889;48.162;11.510;2023-04-01T10:34:52;0.70;;;0.70;;
7693;SDS011;3889;48.162;11.510;2023-04-01T10:37:41;0.82;;;0.60;;
7693;SDS011;3889;48.162;11.510;2023-04-01T10:40:37;0.60;;;0.60;;
7693;SDS011;3889;48.162;11.510;2023-04-01T10:49:53;0.50;;;0.50;;
7693;SDS011;3889;48.162;11.510;2023-04-01T10:58:56;0.98;;;0.60;;
7693;SDS011;3889;48.162;11.510;2023-04-01T11:05:23;0.68;;;0.60;;
7693;SDS011;3889;48.162;11.510;2023-04-01T11:08:26;0.60;;;0.60;;
7693;SDS011;3889;48.162;11.510;2023-04-01T11:23:59;0.50;;;0.50;;
7693;SDS011;3889;48.162;11.510;2023-04-01T11:26:41;0.60;;;0.60;;
7693;SDS011;3889;48.162;11.510;2023-04-01T11:29:22;1.00;;;0.60;;
7693;SDS011;3889;48.162;11.510;2023-04-01T11:32:28;0.50;;;0.50;;
7693;SDS011;3889;48.162;11.510;2023-04-01T11:41:17;0.47;;;0.47;;
7693;SDS011;3889;48.162;11.510;2023-04-01T11:43:54;2.90;;;2.13;;
7693;SDS011;3889;48.162;11.510;2023-04-01T11:46:37;0.60;;;0.60;;
7693;SDS011;3889;48.162;11.510;2023-04-01T11:49:16;0.50;;;0.50;;
7693;SDS011;3889;48.162;11.510;2023-04-01T11:52:09;0.70;;;0.55;;
7693;SDS011;3889;48.162;11.510;2023-04-01T11:54:55;0.50;;;0.50;;
7693;SDS011;3889;48.162;11.510;2023-04-01T11:57:46;0.50;;;0.50;;
7693;SDS011;3889;48.162;11.510;2023-04-01T12:00:36;1.05;;;0.50;;
7693;SDS011;3889;48.162;11.510;2023-04-01T12:03:28;0.60;;;0.60;;
7693;SDS011;3889;48.162;11.510;2023-04-01T12:06:08;0.50;;;0.50;;
7693;SDS011;3889;48.162;11.510;2023-04-01T12:08:44;0.80;;;0.60;;
7693;SDS011;3889;48.162;11.510;2023-04-01T12:11:22;0.60;;;0.60;;
7693;SDS011;3889;48.162;11.510;2023-04-01T12:13:58;0.55;;;0.55;;
7693;SDS011;3889;48.162;11.510;2023-04-01T12:16:40;0.65;;;0.63;;
7693;SDS011;3889;48.162;11.510;2023-04-01T12:19:16;0.50;;;0.50;;
7693;SDS011;3889;48.162;11.510;2023-04-01T12:21:52;0.40;;;0.40;;
7693;SDS011;3889;48.162;11.510;2023-04-01T12:24:36;0.50;;;0.50;;
7693;SDS011;3889;48.162;11.510;2023-04-01T12:30:26;0.57;;;0.57;;
7693;SDS011;3889;48.162;11.510;2023-04-01T12:33:10;0.50;;;0.50;;
7693;SDS011;3889;48.162;11.510;2023-04-01T12:35:53;0.60;;;0.60;;
7693;SDS011;3889;48.162;11.510;2023-04-01T12:38:30;0.50;;;0.50;;
7693;SDS011;3889;48.162;11.510;2023-04-01T12:41:11;0.63;;;0.50;;
7693;SDS011;3889;48.162;11.510;2023-04-01T12:43:53;0.60;;;0.60;;
7693;SDS011;3889;48.162;11.510;2023-04-01T12:46:49;0.50;;;0.50;;
7693;SDS011;3889;48.162;11.510;2023-04-01T12:49:31;2.60;;;1.80;;
7693;SDS011;3889;48.162;11.510;2023-04-01T12:52:19;0.50;;;0.50;;
7693;SDS011;3889;48.162;11.510;2023-04-01T12:55:01;0.70;;;0.57;;
7693;SDS011;3889;48.162;11.510;2023-04-01T13:01:03;0.60;;;0.60;;
7693;SDS011;3889;48.162;11.510;2023-04-01T13:04:01;0.60;;;0.60;;
7693;SDS011;3889;48.162;11.510;2023-04-01T13:07:10;0.60;;;0.60;;
7693;SDS011;3889;48.162;11.510;2023-04-01T13:09:50;0.50;;;0.50;;
7693;SDS011;3889;48.162;11.510;2023-04-01T13:12:29;0.70;;;0.70;;
7693;SDS011;3889;48.162;11.510;2023-04-01T13:15:21;0.70;;;0.70;;
7693;SDS011;3889;48.162;11.510;2023-04-01T13:17:54;0.60;;;0.60;;
7693;SDS011;3889;48.162;11.510;2023-04-01T13:20:29;0.60;;;0.60;;
7693;SDS011;3889;48.162;11.510;2023-04-01T13:23:11;0.80;;;0.60;;
7693;SDS011;3889;48.162;11.510;2023-04-01T13:25:50;0.60;;;0.60;;
7693;SDS011;3889;48.162;11.510;2023-04-01T13:28:39;0.68;;;0.68;;
7693;SDS011;3889;48.162;11.510;2023-04-01T13:31:17;0.70;;;0.70;;
7693;SDS011;3889;48.162;11.510;2023-04-01T13:34:00;1.00;;;0.70;;
7693;SDS011;3889;48.162;11.510;2023-04-01T13:36:42;0.68;;;0.68;;
7693;SDS011;3889;48.162;11.510;2023-04-01T13:39:29;0.98;;;0.70;;
7693;SDS011;3889;48.162;11.510;2023-04-01T13:42:18;0.70;;;0.70;;
7693;SDS011;3889;48.162;11.510;2023-04-01T13:44:54;0.63;;;0.63;;
7693;SDS011;3889;48.162;11.510;2023-04-01T13:50:31;0.63;;;0.63;;
7693;SDS011;3889;48.162;11.510;2023-04-01T13:53:17;0.63;;;0.63;;
7693;SDS011;3889;48.162;11.510;2023-04-01T13:56:08;0.60;;;0.60;;
7693;SDS011;3889;48.162;11.510;2023-04-01T13:58:46;0.68;;;0.68;;
7693;SDS011;3889;48.162;11.510;2023-04-01T14:01:29;0.80;;;0.80;;
7693;SDS011;3889;48.162;11.510;2023-04-01T14:04:11;0.70;;;0.70;;
7693;SDS011;3889;48.162;11.510;2023-04-01T14:07:16;0.70;;;0.70;;
7693;SDS011;3889;48.162;11.510;2023-04-01T14:10:04;0.70;;;0.70;;
7693;SDS011;3889;48.162;11.510;2023-04-01T14:12:39;1.20;;;0.80;;
7693;SDS011;3889;48.162;11.510;2023-04-01T14:15:17;0.77;;;0.70;;
7693;SDS011;3889;48.162;11.510;2023-04-01T14:17:59;0.70;;;0.70;;
7693;SDS011;3889;48.162;11.510;2023-04-01T14:20:41;0.70;;;0.70;;
7693;SDS011;3889;48.162;11.510;2023-04-01T14:23:30;0.73;;;0.70;;
7693;SDS011;3889;48.162;11.510;2023-04-01T14:29:28;0.70;;;0.70;;
7693;SDS011;3889;48.162;11.510;2023-04-01T14:32:07;0.70;;;0.70;;
7693;SDS011;3889;48.162;11.510;2023-04-01T14:34:53;0.70;;;0.70;;
7693;SDS011;3889;48.162;11.510;2023-04-01T14:37:39;0.63;;;0.60;;
7693;SDS011;3889;48.162;11.510;2023-04-01T14:40:28;0.70;;;0.70;;
7693;SDS011;3889;48.162;11.510;2023-04-01T14:43:14;0.85;;;0.70;;
7693;SDS011;3889;48.162;11.510;2023-04-01T14:45:59;0.60;;;0.60;;
7693;SDS011;3889;48.162;11.510;2023-04-01T14:48:52;0.70;;;0.65;;
7693;SDS011;3889;48.162;11.510;2023-04-01T14:51:28;1.08;;;0.60;;
7693;SDS011;3889;48.162;11.510;2023-04-01T14:54:02;0.70;;;0.70;;
7693;SDS011;3889;48.162;11.510;2023-04-01T14:56:35;0.60;;;0.60;;
7693;SDS011;3889;48.162;11.510;2023-04-01T14:59:07;0.70;;;0.70;;
7693;SDS011;3889;48.162;11.510;2023-04-01T15:01:39;1.67;;;1.20;;
7693;SDS011;3889;48.162;11.510;2023-04-01T15:04:22;0.70;;;0.70;;
7693;SDS011;3889;48.162;11.510;2023-04-01T15:07:19;0.70;;;0.70;;
7693;SDS011;3889;48.162;11.510;2023-04-01T15:09:59;1.15;;;0.70;;
7693;SDS011;3889;48.162;11.510;2023-04-01T15:12:35;1.05;;;0.85;;
7693;SDS011;3889;48.162;11.510;2023-04-01T15:15:17;1.48;;;1.08;;
7693;SDS011;3889;48.162;11.510;2023-04-01T15:17:58;0.60;;;0.60;;
7693;SDS011;3889;48.162;11.510;2023-04-01T15:23:40;1.80;;;1.10;;
7693;SDS011;3889;48.162;11.510;2023-04-01T15:26:31;0.70;;;0.70;;
7693;SDS011;3889;48.162;11.510;2023-04-01T15:29:29;0.82;;;0.80;;
7693;SDS011;3889;48.162;11.510;2023-04-01T15:32:32;1.33;;;1.10;;
7693;SDS011;3889;48.162;11.510;2023-04-01T15:35:14;0.77;;;0.77;;
7693;SDS011;3889;48.162;11.510;2023-04-01T15:37:54;0.60;;;0.60;;
7693;SDS011;3889;48.162;11.510;2023-04-01T15:40:27;0.70;;;0.70;;
7693;SDS011;3889;48.162;11.510;2023-04-01T15:43:02;0.82;;;0.80;;
7693;SDS011;3889;48.162;11.510;2023-04-01T15:45:42;0.77;;;0.77;;
7693;SDS011;3889;48.162;11.510;2023-04-01T15:48:19;0.82;;;0.52;;
7693;SDS011;3889;48.162;11.510;2023-04-01T15:51:01;0.60;;;0.60;;
7693;SDS011;3889;48.162;11.510;2023-04-01T15:56:35;0.70;;;0.70;;
7693;SDS011;3889;48.162;11.510;2023-04-01T15:59:20;1.35;;;1.00;;
7693;SDS011;3889;48.162;11.510;2023-04-01T16:02:07;1.27;;;0.95;;
7693;SDS011;3889;48.162;11.510;2023-04-01T16:04:54;1.50;;;0.90;;
7693;SDS011;3889;48.162;11.510;2023-04-01T16:07:30;0.50;;;0.50;;
7693;SDS011;3889;48.162;11.510;2023-04-01T16:10:17;0.75;;;0.55;;
7693;SDS011;3889;48.162;11.510;2023-04-01T16:12:57;1.10;;;0.60;;
7693;SDS011;3889;48.162;11.510;2023-04-01T16:15:39;0.57;;;0.57;;
7693;SDS011;3889;48.162;11.510;2023-04-01T16:18:27;0.60;;;0.60;;
7693;SDS011;3889;48.162;11.510;2023-04-01T16:21:05;0.50;;;0.50;;
7693;SDS011;3889;48.162;11.510;2023-04-01T16:23:39;0.70;;;0.70;;
7693;SDS011;3889;48.162;11.510;2023-04-01T16:26:15;0.60;;;0.60;;
7693;SDS011;3889;48.162;11.510;2023-04-01T16:28:49;0.73;;;0.70;;
7693;SDS011;3889;48.162;11.510;2023-04-01T16:31:29;0.60;;;0.60;;
7693;SDS011;3889;48.162;11.510;2023-04-01T16:34:03;0.60;;;0.60;;
7693;SDS011;3889;48.162;11.510;2023-04-01T16:36:37;0.68;;;0.68;;
7693;SDS011;3889;48.162;11.510;2023-04-01T16:39:22;0.55;;;0.55;;
7693;SDS011;3889;48.162;11.510;2023-04-01T16:42:02;0.73;;;0.65;;
7693;SDS011;3889;48.162;11.510;2023-04-01T16:44:46;0.80;;;0.80;;
7693;SDS011;3889;48.162;11.510;2023-04-01T16:47:18;1.45;;;0.90;;
7693;SDS011;3889;48.162;11.510;2023-04-01T16:49:50;0.90;;;0.80;;
7693;SDS011;3889;48.162;11.510;2023-04-01T16:52:36;0.80;;;0.80;;
7693;SDS011;3889;48.162;11.510;2023-04-01T16:55:16;0.77;;;0.70;;
7693;SDS011;3889;48.162;11.510;2023-04-01T16:57:46;0.77;;;0.77;;
7693;SDS011;3889;48.162;11.510;2023-04-01T17:00:23;1.00;;;0.70;;
7693;SDS011;3889;48.162;11.510;2023-04-01T17:02:58;1.30;;;1.20;;
7693;SDS011;3889;48.162;11.510;2023-04-01T17:05:40;0.98;;;0.90;;
7693;SDS011;3889;48.162;11.510;2023-04-01T17:08:17;1.02;;;0.80;;
7693;SDS011;3889;48.162;11.510;2023-04-01T17:11:00;1.05;;;0.98;;
7693;SDS011;3889;48.162;11.510;2023-04-01T17:13:40;0.90;;;0.80;;
7693;SDS011;3889;48.162;11.510;2023-04-01T17:16:20;0.80;;;0.80;;
7693;SDS011;3889;48.162;11.510;2023-04-01T17:19:14;0.75;;;0.75;;
7693;SDS011;3889;48.162;11.510;2023-04-01T17:21:56;0.63;;;0.63;;
7693;SDS011;3889;48.162;11.510;2023-04-01T17:24:35;0.70;;;0.70;;
7693;SDS011;3889;48.162;11.510;2023-04-01T17:27:13;1.77;;;1.30;;
7693;SDS011;3889;48.162;11.510;2023-04-01T17:29:57;1.17;;;0.90;;
7693;SDS011;3889;48.162;11.510;2023-04-01T17:32:39;2.00;;;1.40;;
7693;SDS011;3889;48.162;11.510;2023-04-01T17:35:19;0.70;;;0.70;;